createdAt,value
2018-09-09T00:01:49.570Z,34.63
2018-09-09T00:04:20.121Z,33.99
2018-09-09T00:06:50.760Z,34.01
2018-09-09T00:09:26.348Z,34.56
2018-09-09T00:11:57.484Z,34.66
2018-09-09T00:14:28.089Z,34.98
2018-09-09T00:16:58.952Z,34.02
2018-09-09T00:19:29.621Z,33.92
2018-09-09T00:22:00.377Z,33.45
2018-09-09T00:24:31.082Z,34.37
2018-09-09T00:27:02.300Z,33.07
2018-09-09T00:29:33.017Z,33.11
2018-09-09T00:32:03.709Z,32.35
2018-09-09T00:34:34.272Z,32.77
2018-09-09T00:37:05.124Z,32.99
2018-09-09T00:39:35.787Z,33.32
2018-09-09T00:42:06.464Z,32.10
2018-09-09T00:44:37.161Z,32.89
2018-09-09T00:47:07.837Z,33.54
2018-09-09T00:49:43.541Z,33.66
2018-09-09T00:52:19.302Z,33.70
2018-09-09T00:54:49.773Z,33.45
2018-09-09T00:57:20.544Z,34.33
2018-09-09T00:59:51.188Z,33.99
2018-09-09T01:02:21.992Z,34.58
2018-09-09T01:04:52.591Z,33.79
2018-09-09T01:07:23.261Z,34.50
2018-09-09T01:09:53.848Z,34.89
2018-09-09T01:12:24.609Z,34.95
2018-09-09T01:14:56.021Z,34.21
2018-09-09T01:17:26.864Z,34.31
2018-09-09T01:19:57.441Z,34.57
2018-09-09T01:22:28.246Z,34.06
2018-09-09T01:24:58.933Z,33.65
2018-09-09T01:27:29.781Z,33.63
2018-09-09T01:30:00.317Z,35.56
2018-09-09T01:32:31.142Z,35.31
2018-09-09T01:35:11.330Z,36.29
2018-09-09T01:37:43.784Z,35.17
2018-09-09T01:40:14.652Z,34.69
2018-09-09T01:42:45.293Z,34.74
2018-09-09T01:45:15.964Z,35.41
2018-09-09T01:47:46.815Z,36.73
2018-09-09T01:50:17.586Z,35.76
2018-09-09T01:52:48.485Z,36.31
2018-09-09T01:55:19.149Z,35.82
2018-09-09T01:57:49.950Z,36.44
2018-09-09T02:00:20.665Z,36.73
2018-09-09T02:02:51.721Z,36.87
2018-09-09T02:05:22.336Z,36.99
2018-09-09T02:07:53.066Z,35.50
2018-09-09T02:10:23.697Z,34.54
2018-09-09T02:12:54.495Z,34.48
2018-09-09T02:15:25.205Z,34.90
2018-09-09T02:17:55.949Z,34.70
2018-09-09T02:20:26.584Z,34.46
2018-09-09T02:22:57.586Z,35.09
2018-09-09T02:25:28.197Z,35.35
2018-09-09T02:27:59.094Z,35.04
2018-09-09T02:30:29.836Z,34.80
2018-09-09T02:33:00.661Z,35.73
2018-09-09T02:35:31.243Z,35.09
2018-09-09T02:38:01.989Z,35.58
2018-09-09T02:40:32.628Z,35.78
2018-09-09T02:43:03.646Z,36.45
2018-09-09T02:45:34.277Z,36.21
2018-09-09T02:48:05.092Z,35.58
2018-09-09T02:50:35.974Z,35.97
2018-09-09T02:53:07.170Z,36.78
2018-09-09T02:55:41.722Z,37.39
2018-09-09T02:58:12.609Z,36.91
2018-09-09T03:00:43.125Z,36.20
2018-09-09T03:03:13.979Z,34.69
2018-09-09T03:05:44.537Z,34.95
2018-09-09T03:08:15.220Z,35.67
2018-09-09T03:10:45.928Z,36.68
2018-09-09T03:13:16.744Z,36.23
2018-09-09T03:15:47.499Z,37.16
2018-09-09T03:18:18.244Z,36.23
2018-09-09T03:20:48.860Z,36.31
2018-09-09T03:23:19.649Z,36.82
2018-09-09T03:25:50.129Z,36.88
2018-09-09T03:28:21.086Z,37.20
2018-09-09T03:30:51.686Z,36.57
2018-09-09T03:33:22.301Z,36.33
2018-09-09T03:35:53.073Z,35.81
2018-09-09T03:38:24.284Z,35.77
2018-09-09T03:40:54.881Z,36.33
2018-09-09T03:43:25.677Z,37.07
2018-09-09T03:45:56.318Z,36.64
2018-09-09T03:48:27.190Z,36.18
2018-09-09T03:50:57.887Z,36.75
2018-09-09T03:53:28.968Z,35.67
2018-09-09T03:55:59.628Z,35.78
2018-09-09T03:58:30.173Z,35.20
2018-09-09T04:01:00.588Z,35.98
2018-09-09T04:03:31.452Z,35.78
2018-09-09T04:06:02.032Z,35.32
2018-09-09T04:08:32.958Z,35.00
2018-09-09T04:11:07.433Z,35.17
2018-09-09T04:13:38.837Z,36.37
2018-09-09T04:16:10.713Z,35.97
2018-09-09T04:18:42.592Z,35.72
2018-09-09T04:21:13.138Z,35.46
2018-09-09T04:23:43.993Z,34.54
2018-09-09T04:26:14.568Z,34.15
2018-09-09T04:28:45.373Z,33.79
2018-09-09T04:31:15.949Z,35.21
2018-09-09T04:33:46.740Z,34.76
2018-09-09T04:36:17.295Z,33.27
2018-09-09T04:38:47.777Z,33.36
2018-09-09T04:41:18.380Z,33.60
2018-09-09T04:43:49.362Z,33.31
2018-09-09T04:46:20.001Z,32.95
2018-09-09T04:48:50.869Z,33.34
2018-09-09T04:51:21.573Z,34.06
2018-09-09T04:53:52.432Z,33.75
2018-09-09T04:56:23.049Z,35.66
2018-09-09T04:58:54.045Z,34.20
2018-09-09T05:01:24.640Z,32.23
2018-09-09T05:03:55.305Z,34.20
2018-09-09T05:06:25.836Z,34.35
2018-09-09T05:08:56.845Z,35.05
2018-09-09T05:11:27.492Z,33.62
2018-09-09T05:13:58.388Z,34.77
2018-09-09T05:16:29.001Z,33.90
2018-09-09T05:18:59.729Z,33.53
2018-09-09T05:21:30.285Z,32.60
2018-09-09T05:24:01.009Z,33.08
2018-09-09T05:26:31.580Z,29.94
2018-09-09T05:29:02.498Z,30.68
2018-09-09T05:31:33.156Z,30.39
2018-09-09T05:34:06.387Z,31.00
2018-09-09T05:36:37.405Z,31.29
2018-09-09T05:39:13.453Z,32.92
2018-09-09T05:41:44.255Z,32.26
2018-09-09T05:44:17.592Z,32.62
2018-09-09T05:46:51.817Z,31.63
2018-09-09T05:49:22.829Z,32.97
2018-09-09T05:51:53.985Z,31.86
2018-09-09T05:54:24.477Z,31.71
2018-09-09T05:56:55.039Z,29.62
2018-09-09T05:59:25.836Z,29.19
2018-09-09T06:01:56.778Z,29.71
2018-09-09T06:04:27.842Z,28.00
2018-09-09T06:06:58.549Z,27.64
2018-09-09T06:09:29.613Z,28.51
2018-09-09T06:12:14.496Z,26.90
2018-09-09T06:14:45.257Z,27.17
2018-09-09T06:17:15.945Z,28.86
2018-09-09T06:19:46.758Z,29.46
2018-09-09T06:22:17.411Z,28.60
2018-09-09T06:24:48.172Z,28.12
2018-09-09T06:27:18.733Z,28.29
2018-09-09T06:29:49.569Z,27.23
2018-09-09T06:32:20.168Z,26.86
2018-09-09T06:34:51.139Z,27.89
2018-09-09T06:37:21.852Z,26.97
2018-09-09T06:39:52.919Z,26.24
2018-09-09T06:42:23.581Z,25.95
2018-09-09T06:44:54.523Z,26.73
2018-09-09T06:47:25.185Z,26.62
2018-09-09T06:49:56.285Z,25.02
2018-09-09T06:52:26.920Z,25.38
2018-09-09T06:54:57.650Z,25.49
2018-09-09T06:57:28.377Z,26.02
2018-09-09T06:59:59.381Z,26.19
2018-09-09T07:02:30.002Z,25.71
2018-09-09T07:05:00.720Z,24.12
2018-09-09T07:07:31.359Z,24.68
2018-09-09T07:10:02.330Z,24.03
2018-09-09T07:12:37.251Z,25.91
2018-09-09T07:15:07.910Z,25.98
2018-09-09T07:17:38.501Z,24.24
2018-09-09T07:20:09.280Z,24.43
2018-09-09T07:22:39.976Z,24.56
2018-09-09T07:25:10.881Z,23.87
2018-09-09T07:27:41.498Z,23.33
2018-09-09T07:30:12.477Z,23.24
2018-09-09T07:32:43.024Z,22.17
2018-09-09T07:35:14.708Z,22.11
2018-09-09T07:37:45.397Z,23.47
2018-09-09T07:40:16.305Z,23.22
2018-09-09T07:42:47.009Z,22.71
2018-09-09T07:45:17.777Z,21.35
2018-09-09T07:47:48.588Z,21.78
2018-09-09T07:50:19.453Z,23.17
2018-09-09T07:52:50.097Z,22.39
2018-09-09T07:55:20.923Z,22.50
2018-09-09T07:57:51.650Z,21.64
2018-09-09T08:00:22.637Z,21.39
2018-09-09T08:02:53.228Z,21.85
2018-09-09T08:05:24.093Z,21.14
2018-09-09T08:07:54.729Z,21.18
2018-09-09T08:10:25.541Z,21.42
2018-09-09T08:12:56.274Z,21.03
2018-09-09T08:15:26.820Z,20.19
2018-09-09T08:17:57.501Z,19.62
2018-09-09T08:20:28.227Z,19.65
2018-09-09T08:22:58.629Z,18.99
2018-09-09T08:25:29.283Z,19.43
2018-09-09T08:27:59.911Z,18.58
2018-09-09T08:30:30.464Z,19.25
2018-09-09T08:33:01.077Z,18.71
2018-09-09T08:35:31.865Z,19.49
2018-09-09T08:38:02.542Z,19.91
2018-09-09T08:40:33.209Z,19.85
2018-09-09T08:43:04.375Z,19.50
2018-09-09T08:45:35.117Z,19.19
2018-09-09T08:48:05.901Z,17.55
2018-09-09T08:50:36.821Z,18.05
2018-09-09T08:53:07.325Z,18.83
2018-09-09T08:55:38.361Z,17.88
2018-09-09T08:58:08.949Z,17.78
2018-09-09T09:00:39.755Z,18.38
2018-09-09T09:03:10.317Z,18.05
2018-09-09T09:05:41.082Z,17.51
2018-09-09T09:08:11.815Z,17.41
2018-09-09T09:10:42.608Z,17.41
2018-09-09T09:13:13.791Z,15.77
2018-09-09T09:15:44.869Z,15.03
2018-09-09T09:18:15.814Z,15.12
2018-09-09T09:20:46.730Z,14.86
2018-09-09T09:23:17.543Z,14.27
2018-09-09T09:25:52.780Z,12.87
2018-09-09T09:28:24.124Z,13.54
2018-09-09T09:30:55.158Z,13.44
2018-09-09T09:33:25.913Z,13.84
2018-09-09T09:35:56.572Z,15.94
2018-09-09T09:38:27.325Z,16.03
2018-09-09T09:40:58.369Z,14.71
2018-09-09T09:43:28.941Z,14.12
2018-09-09T09:45:59.837Z,13.44
2018-09-09T09:48:30.577Z,13.79
2018-09-09T09:51:01.081Z,13.07
2018-09-09T09:53:31.715Z,13.54
2018-09-09T09:56:02.528Z,14.29
2018-09-09T09:58:35.033Z,15.23
2018-09-09T10:01:05.893Z,14.77
2018-09-09T10:03:36.533Z,13.41
2018-09-09T10:06:07.331Z,13.97
2018-09-09T10:08:37.581Z,13.52
2018-09-09T10:11:08.749Z,12.70
2018-09-09T10:13:39.453Z,12.91
2018-09-09T10:16:10.249Z,12.57
2018-09-09T10:18:41.204Z,12.42
2018-09-09T10:21:11.864Z,12.50
2018-09-09T10:23:42.703Z,13.05
2018-09-09T10:26:13.623Z,12.26
2018-09-09T10:28:44.406Z,12.51
2018-09-09T10:31:15.145Z,13.21
2018-09-09T10:33:45.824Z,12.83
2018-09-09T10:36:16.596Z,11.80
2018-09-09T10:38:47.232Z,12.24
2018-09-09T10:41:18.129Z,12.02
2018-09-09T10:43:48.693Z,12.80
2018-09-09T10:46:19.645Z,12.19
2018-09-09T10:48:50.302Z,11.56
2018-09-09T10:51:21.033Z,12.42
2018-09-09T10:53:51.633Z,12.85
2018-09-09T10:56:22.689Z,12.06
2018-09-09T10:58:53.349Z,12.07
2018-09-09T11:01:24.161Z,12.24
2018-09-09T11:03:54.706Z,12.85
2018-09-09T11:06:25.549Z,13.32
2018-09-09T11:08:56.069Z,12.05
2018-09-09T11:11:27.014Z,13.17
2018-09-09T11:13:57.497Z,13.14
2018-09-09T11:16:28.408Z,12.97
2018-09-09T11:18:59.440Z,12.70
2018-09-09T11:21:30.413Z,13.90
2018-09-09T11:24:01.044Z,13.46
2018-09-09T11:26:31.838Z,13.19
2018-09-09T11:29:02.490Z,12.27
2018-09-09T11:31:33.344Z,11.85
2018-09-09T11:34:03.957Z,13.77
2018-09-09T11:36:34.721Z,13.25
2018-09-09T11:39:06.841Z,13.70
2018-09-09T11:41:37.678Z,13.09
2018-09-09T11:44:08.470Z,14.23
2018-09-09T11:46:39.249Z,13.52
2018-09-09T11:49:09.881Z,14.75
2018-09-09T11:51:40.657Z,14.44
2018-09-09T11:54:11.330Z,14.54
2018-09-09T11:56:42.132Z,13.06
2018-09-09T11:59:12.849Z,12.65
2018-09-09T12:01:43.977Z,13.16
2018-09-09T12:04:14.690Z,12.47
2018-09-09T12:06:45.613Z,10.99
2018-09-09T12:09:16.265Z,12.99
2018-09-09T12:11:47.422Z,12.79
2018-09-09T12:14:18.009Z,13.53
2018-09-09T12:16:48.765Z,13.14
2018-09-09T12:19:19.391Z,13.34
2018-09-09T12:21:50.385Z,11.93
2018-09-09T12:24:21.126Z,12.90
2018-09-09T12:26:51.973Z,12.72
2018-09-09T12:29:22.553Z,13.28
2018-09-09T12:31:53.538Z,13.62
2018-09-09T12:34:24.150Z,13.60
2018-09-09T12:36:54.732Z,13.16
2018-09-09T12:39:25.445Z,13.69
2018-09-09T12:41:56.282Z,12.61
2018-09-09T12:44:32.060Z,13.23
2018-09-09T12:47:07.791Z,13.02
2018-09-09T12:49:38.465Z,13.46
2018-09-09T12:52:09.169Z,13.26
2018-09-09T12:54:39.806Z,13.99
2018-09-09T12:57:10.590Z,13.80
2018-09-09T12:59:41.390Z,12.47
2018-09-09T13:02:12.173Z,12.68
2018-09-09T13:04:42.788Z,13.55
2018-09-09T13:07:13.628Z,13.68
2018-09-09T13:09:44.313Z,15.03
2018-09-09T13:12:15.096Z,13.95
2018-09-09T13:14:45.709Z,13.02
2018-09-09T13:17:16.445Z,11.96
2018-09-09T13:19:47.138Z,11.67
2018-09-09T13:22:17.929Z,11.38
2018-09-09T13:24:48.544Z,12.40
2018-09-09T13:27:19.228Z,11.37
2018-09-09T13:29:49.862Z,11.85
2018-09-09T13:32:20.822Z,11.73
2018-09-09T13:34:51.637Z,13.75
2018-09-09T13:37:22.387Z,13.32
2018-09-09T13:39:52.949Z,13.75
2018-09-09T13:42:23.797Z,14.33
2018-09-09T13:44:54.432Z,13.68
2018-09-09T13:47:25.293Z,14.06
2018-09-09T13:49:55.957Z,14.67
2018-09-09T13:52:26.676Z,14.75
2018-09-09T13:54:57.053Z,14.80
2018-09-09T13:57:27.713Z,15.69
2018-09-09T13:59:58.305Z,15.11
2018-09-09T14:02:29.239Z,16.56
2018-09-09T14:04:59.889Z,16.16
2018-09-09T14:07:30.745Z,15.61
2018-09-09T14:10:01.361Z,16.17
2018-09-09T14:12:32.360Z,15.37
2018-09-09T14:15:03.327Z,15.25
2018-09-09T14:17:34.120Z,16.29
2018-09-09T14:20:04.889Z,16.21
2018-09-09T14:22:35.578Z,15.86
2018-09-09T14:25:06.321Z,15.36
2018-09-09T14:27:37.364Z,16.51
2018-09-09T14:30:08.026Z,16.12
2018-09-09T14:32:38.792Z,16.07
2018-09-09T14:35:09.449Z,14.92
2018-09-09T14:37:40.313Z,15.56
2018-09-09T14:40:11.065Z,14.36
2018-09-09T14:42:41.809Z,14.87
2018-09-09T14:45:12.386Z,15.47
2018-09-09T14:47:43.176Z,14.58
2018-09-09T14:50:13.910Z,14.90
2018-09-09T14:52:44.981Z,15.28
2018-09-09T14:55:15.785Z,15.42
2018-09-09T14:57:46.627Z,15.03
2018-09-09T15:00:17.369Z,16.03
2018-09-09T15:02:48.365Z,15.63
2018-09-09T15:05:18.917Z,15.93
2018-09-09T15:07:49.717Z,14.88
2018-09-09T15:10:20.411Z,15.10
2018-09-09T15:12:51.521Z,14.99
2018-09-09T15:15:22.129Z,15.10
2018-09-09T15:17:53.113Z,16.40
2018-09-09T15:20:23.754Z,16.97
2018-09-09T15:22:54.481Z,16.74
2018-09-09T15:25:25.122Z,17.02
2018-09-09T15:27:55.724Z,15.78
2018-09-09T15:30:26.489Z,15.07
2018-09-09T15:32:57.204Z,15.68
2018-09-09T15:35:27.845Z,16.07
2018-09-09T15:37:58.695Z,15.99
2018-09-09T15:40:29.261Z,16.29
2018-09-09T15:43:00.253Z,16.59
2018-09-09T15:45:30.891Z,16.88
2018-09-09T15:48:02.481Z,16.83
2018-09-09T15:50:33.265Z,17.49
2018-09-09T15:53:03.884Z,17.08
2018-09-09T15:55:34.441Z,16.90
2018-09-09T15:58:05.301Z,16.83
2018-09-09T16:00:36.073Z,16.52
2018-09-09T16:03:06.872Z,17.48
2018-09-09T16:05:37.517Z,17.81
2018-09-09T16:08:08.180Z,17.25
2018-09-09T16:10:38.848Z,17.73
2018-09-09T16:13:09.674Z,16.75
2018-09-09T16:15:40.338Z,17.47
2018-09-09T16:18:11.323Z,17.28
2018-09-09T16:20:41.966Z,19.03
2018-09-09T16:23:12.818Z,18.58
2018-09-09T16:25:43.439Z,17.76
2018-09-09T16:28:14.072Z,17.74
2018-09-09T16:30:44.672Z,18.08
2018-09-09T16:33:15.352Z,18.82
2018-09-09T16:35:46.032Z,19.14
2018-09-09T16:38:16.849Z,18.74
2018-09-09T16:40:47.546Z,18.99
2018-09-09T16:43:18.230Z,19.00
2018-09-09T16:45:48.844Z,18.86
2018-09-09T16:48:19.773Z,18.89
2018-09-09T16:50:50.484Z,19.18
2018-09-09T16:53:21.520Z,19.30
2018-09-09T16:55:52.189Z,19.26
2018-09-09T16:58:22.949Z,19.01
2018-09-09T17:00:53.600Z,19.49
2018-09-09T17:03:24.362Z,19.24
2018-09-09T17:05:54.908Z,19.87
2018-09-09T17:08:25.701Z,19.57
2018-09-09T17:10:56.115Z,19.89
2018-09-09T17:13:26.990Z,20.87
2018-09-09T17:15:57.741Z,21.40
2018-09-09T17:18:28.421Z,21.01
2018-09-09T17:20:59.057Z,21.61
2018-09-09T17:23:30.021Z,21.75
2018-09-09T17:26:00.716Z,21.93
2018-09-09T17:28:31.836Z,21.34
2018-09-09T17:31:02.652Z,21.50
2018-09-09T17:33:33.915Z,21.08
2018-09-09T17:36:04.913Z,22.07
2018-09-09T17:38:35.872Z,21.61
2018-09-09T17:41:06.890Z,20.72
2018-09-09T17:43:38.037Z,20.56
2018-09-09T17:46:08.883Z,20.67
2018-09-09T17:48:40.292Z,20.67
2018-09-09T17:51:11.220Z,20.77
2018-09-09T17:53:42.383Z,21.38
2018-09-09T17:56:13.269Z,20.29
2018-09-09T17:58:44.253Z,20.58
2018-09-09T18:01:15.151Z,20.84
2018-09-09T18:03:46.086Z,20.43
2018-09-09T18:06:16.982Z,20.60
2018-09-09T18:08:48.188Z,21.52
2018-09-09T18:11:19.079Z,21.42
2018-09-09T18:13:50.435Z,21.36
2018-09-09T18:16:21.602Z,21.42
2018-09-09T18:18:52.803Z,20.90
2018-09-09T18:21:23.761Z,21.37
2018-09-09T18:23:54.848Z,20.72
2018-09-09T18:26:25.770Z,21.72
2018-09-09T18:28:56.615Z,20.74
2018-09-09T18:31:27.207Z,21.10
2018-09-09T18:33:58.295Z,21.55
2018-09-09T18:36:29.222Z,21.41
2018-09-09T18:39:00.496Z,23.13
2018-09-09T18:41:31.565Z,22.38
2018-09-09T18:44:02.621Z,22.21
2018-09-09T18:46:33.491Z,22.51
2018-09-09T18:49:04.562Z,22.11
2018-09-09T18:51:39.662Z,22.33
2018-09-09T18:54:12.761Z,22.68
2018-09-09T18:56:45.104Z,23.18
2018-09-09T18:59:45.489Z,22.62
2018-09-09T19:02:17.525Z,23.18
2018-09-09T19:04:49.329Z,23.59
2018-09-09T19:07:21.575Z,23.50
2018-09-09T19:09:52.816Z,22.49
2018-09-09T19:12:23.709Z,23.00
2018-09-09T19:14:54.815Z,22.65
2018-09-09T19:17:25.748Z,22.10
2018-09-09T19:19:56.855Z,22.24
2018-09-09T19:22:28.564Z,22.26
2018-09-09T19:25:00.348Z,21.05
2018-09-09T19:27:31.230Z,22.25
2018-09-09T19:30:05.040Z,23.00
2018-09-09T19:32:35.908Z,22.78
2018-09-09T19:35:07.139Z,21.91
2018-09-09T19:37:38.098Z,23.62
2018-09-09T19:40:08.990Z,22.88
2018-09-09T19:42:40.267Z,23.12
2018-09-09T19:45:11.460Z,23.35
2018-09-09T19:47:42.491Z,23.48
2018-09-09T19:50:13.656Z,22.64
2018-09-09T19:52:44.562Z,23.56
2018-09-09T19:55:15.456Z,23.49
2018-09-09T19:57:46.369Z,22.70
2018-09-09T20:00:18.227Z,22.58
2018-09-09T20:02:49.083Z,24.50
2018-09-09T20:05:20.420Z,24.05
2018-09-09T20:07:51.385Z,24.46
2018-09-09T20:10:22.264Z,24.41
2018-09-09T20:12:53.079Z,23.78
2018-09-09T20:15:24.152Z,25.23
2018-09-09T20:17:54.947Z,24.14
2018-09-09T20:20:26.051Z,24.75
2018-09-09T20:22:57.152Z,25.22
2018-09-09T20:25:28.219Z,25.19
2018-09-09T20:27:58.745Z,23.54
2018-09-09T20:30:29.516Z,25.01
2018-09-09T20:33:00.149Z,24.52
2018-09-09T20:35:30.981Z,24.79
2018-09-09T20:38:01.637Z,25.32
2018-09-09T20:40:32.441Z,26.17
2018-09-09T20:43:02.789Z,25.25
2018-09-09T20:45:33.416Z,26.16
2018-09-09T20:48:03.889Z,25.57
2018-09-09T20:50:34.635Z,25.37
2018-09-09T20:53:05.253Z,25.91
2018-09-09T20:55:36.152Z,26.20
2018-09-09T20:58:06.897Z,26.39
2018-09-09T21:00:37.735Z,25.87
2018-09-09T21:03:08.334Z,25.71
2018-09-09T21:05:38.950Z,25.74
2018-09-09T21:08:09.556Z,27.06
2018-09-09T21:10:40.184Z,26.49
2018-09-09T21:13:10.768Z,25.85
2018-09-09T21:15:41.800Z,26.68
2018-09-09T21:18:12.359Z,26.33
2018-09-09T21:20:43.321Z,26.42
2018-09-09T21:23:14.008Z,25.32
2018-09-09T21:25:44.717Z,25.91
2018-09-09T21:28:15.179Z,26.24
2018-09-09T21:30:51.140Z,26.18
2018-09-09T21:33:21.823Z,26.59
2018-09-09T21:35:53.003Z,25.20
2018-09-09T21:38:23.568Z,26.23
2018-09-09T21:40:54.178Z,26.52
2018-09-09T21:43:24.831Z,28.33
2018-09-09T21:45:55.693Z,27.47
2018-09-09T21:48:26.274Z,26.09
2018-09-09T21:50:56.915Z,25.40
2018-09-09T21:53:27.534Z,26.21
2018-09-09T21:55:58.206Z,27.21
2018-09-09T21:58:28.800Z,27.01
2018-09-09T22:01:04.621Z,26.92
2018-09-09T22:03:35.114Z,26.19
2018-09-09T22:06:05.780Z,26.41
2018-09-09T22:08:36.356Z,26.84
2018-09-09T22:11:08.197Z,27.39
2018-09-09T22:13:38.929Z,27.70
2018-09-09T22:16:09.384Z,27.07
2018-09-09T22:18:39.895Z,27.90
2018-09-09T22:21:10.612Z,26.81
2018-09-09T22:23:41.270Z,27.87
2018-09-09T22:26:11.937Z,27.04
2018-09-09T22:28:42.529Z,27.37
2018-09-09T22:31:13.263Z,27.80
2018-09-09T22:33:43.892Z,27.25
2018-09-09T22:36:14.660Z,27.88
2018-09-09T22:38:45.337Z,28.37
2018-09-09T22:41:16.137Z,26.95
2018-09-09T22:43:46.639Z,27.80
2018-09-09T22:46:17.186Z,27.83
2018-09-09T22:48:47.680Z,27.28
2018-09-09T22:51:18.376Z,27.11
2018-09-09T22:53:48.913Z,26.72
2018-09-09T22:56:19.522Z,26.76
2018-09-09T22:58:50.037Z,27.13
2018-09-09T23:01:21.011Z,27.69
2018-09-09T23:03:51.704Z,26.54
2018-09-09T23:06:22.423Z,26.46
2018-09-09T23:08:53.013Z,27.41
2018-09-09T23:11:23.702Z,27.64
2018-09-09T23:13:54.218Z,27.93
2018-09-09T23:16:24.889Z,28.69
2018-09-09T23:18:55.359Z,27.28
2018-09-09T23:21:26.025Z,27.56
2018-09-09T23:23:56.910Z,26.69
2018-09-09T23:26:27.784Z,26.92
2018-09-09T23:28:58.273Z,27.07
2018-09-09T23:31:29.028Z,27.51
2018-09-09T23:33:59.651Z,27.36
2018-09-09T23:36:30.377Z,26.61
2018-09-09T23:39:01.064Z,25.54
2018-09-09T23:41:31.768Z,26.38
2018-09-09T23:44:02.460Z,27.49
2018-09-09T23:46:33.272Z,28.39
2018-09-09T23:49:03.955Z,27.23
2018-09-09T23:51:34.801Z,29.31
2018-09-09T23:54:05.496Z,27.57
2018-09-09T23:56:36.089Z,27.54
2018-09-09T23:59:06.798Z,28.17
